首页
METAR-TAF:

METAR-TAF

机场 :

蘇黎世機場

苏黎世, 瑞士

纬度: 47-29N, 经度: 008-32E, 海拔: 436米

当前天气观测

该预报发布于7分钟前的14:50 UTC
风速19节,风向西转西南
温度 16°C
湿度 55%
气压 1003 hPa
能见度10公里或以上
少量云层高于2500英尺
多云层高于6500英尺

METAR: LSZH 051450Z 25019KT 9999 FEW025 BKN065 16/07 Q1003 NOSIG

时间: 16:57 (14:57 UTC)

预报

该预报发布于32分钟前的14:25 UTC
预报有效从05日的 15点(UTC)到 06日的 21点(UTC)
风速12节,风向西
能见度10公里或以上
少量云层高于1500英尺
多云层高于5000英尺
短暂存在
从 05日的 15点(UTC)到 05日的 21点(UTC)
风速15节,风向西,有时为28节阵风
几率 30% :
短暂存在
从 05日的 21点(UTC)到 06日的 01点(UTC)
阵雨
短暂存在
从 05日的 22点(UTC)到 06日的 07点(UTC)
风速6节,风向南转西南
短暂存在
从 06日的 10点(UTC)到 06日的 17点(UTC)
风速15节,风向西,有时为28节阵风
几率 40% :
短暂存在
从 06日的 19点(UTC)到 06日的 21点(UTC)
能見度: 4000
散云层高于4000英尺, 塔状积云.
阵雨

TAF: LSZH 051425Z 0515/0621 26012KT 9999 FEW015 BKN050 TX16/0515Z TN12/0605Z TX18/0614Z TEMPO 0515/0521 26015G28KT PROB30 TEMPO 0521/0601 SHRA TEMPO 0522/0607 20006KT TEMPO 0610/0617 26015G28KT PROB40 TEMPO 0619/0621 4000 SHRA SCT040TCU

超过4000个机场的气象观测和天气预报(METAR&TAF报告)。

可查询的气象台以黄色和红色小点在地图上表示。

将鼠标移到小点上方,可查看气象台名称。

然后点击查看天气观测和预报。

如需切换地图:点击带黑十字的绿色按钮放大地图;点击带横线的绿色按钮缩小地图;或者点击绿色箭头查看邻近地区的地图。


METAR-TAF: